Time;durP1;ratioP1;P1;durP2;ratioP2;P2;SDS_P1;SDS_P2;PMS_P1;PMS_P2;Temp;Humidity;BMP_temperature;BMP_pressure;BME280_temperature;BME280_humidity;BME280_pressure;Samples;Min_cycle;Max_cycle;Signal;HPM_P1;HPM_P2
2022/10/30 00:02:25;;;;;;;12.88;9.45;;;;;;;20.11;44.35;101342.56;1645368;83;21033;-79
2022/10/30 00:04:51;;;;;;;12.35;8.65;;;;;;;20.11;44.37;101345.33;1647354;83;21100;-78
2022/10/30 00:07:17;;;;;;;14.93;8.68;;;;;;;20.12;44.37;101343.36;1690604;83;22598;-79
2022/10/30 00:09:49;;;;;;;10.48;7.92;;;;;;;20.12;44.37;101346.12;1688962;83;21064;-79
2022/10/30 00:12:16;;;;;;;10.65;8.03;;;;;;;20.11;44.38;101351.41;1689681;83;21106;-79
2022/10/30 00:14:42;;;;;;;11.80;8.10;;;;;;;20.10;44.38;101341.47;1686997;83;21701;-79
2022/10/30 00:17:08;;;;;;;11.90;9.35;;;;;;;20.11;44.36;101347.27;1712773;83;21068;-79
2022/10/30 00:19:35;;;;;;;11.18;8.05;;;;;;;20.10;44.39;101351.14;1725091;83;21353;-79
2022/10/30 00:22:01;;;;;;;11.38;8.20;;;;;;;20.10;44.39;101347.00;1707028;83;21039;-79
2022/10/30 00:24:28;;;;;;;12.20;8.33;;;;;;;20.10;44.40;101344.23;1693566;83;21038;-79
2022/10/30 00:26:54;;;;;;;10.65;7.83;;;;;;;20.09;44.40;101350.31;1704125;83;21072;-79
2022/10/30 00:29:25;;;;;;;11.38;8.50;;;;;;;20.09;44.39;101339.27;1709138;83;21000;-79
2022/10/30 00:31:54;;;;;;;12.15;8.58;;;;;;;20.10;44.38;101334.56;1707147;83;21177;-79
2022/10/30 00:34:21;;;;;;;10.38;8.33;;;;;;;20.08;44.41;101331.53;1724900;83;21222;-79
2022/10/30 00:36:47;;;;;;;10.35;7.97;;;;;;;20.08;44.40;101326.02;1722939;83;21072;-78
2022/10/30 00:39:13;;;;;;;11.50;8.53;;;;;;;20.08;44.40;101319.11;1727126;83;21088;-79
2022/10/30 00:41:40;;;;;;;12.65;8.60;;;;;;;20.08;44.38;101311.37;1694563;83;21068;-79
2022/10/30 00:44:39;;;;;;;13.28;9.08;;;;;;;20.08;44.40;101317.72;1714179;83;22013;-79
2022/10/30 00:47:35;;;;;;;10.38;7.90;;;;;;;20.08;44.40;101316.34;1712166;83;21581;-79
2022/10/30 00:50:24;;;;;;;10.80;7.92;;;;;;;20.08;44.39;101313.58;1698659;83;21118;-78
2022/10/30 00:53:10;;;;;;;11.85;8.10;;;;;;;20.07;44.36;101313.31;1719686;81;21067;-78
2022/10/30 00:55:54;;;;;;;11.73;8.48;;;;;;;20.07;44.36;101307.79;1701974;83;22229;-79
2022/10/30 00:58:37;;;;;;;10.45;7.85;;;;;;;20.06;44.34;101296.50;1709787;83;21180;-79
2022/10/30 01:01:07;;;;;;;11.22;8.40;;;;;;;20.06;44.36;101294.30;1708509;83;21072;-79
2022/10/30 01:03:33;;;;;;;9.58;7.37;;;;;;;20.04;44.37;101295.97;1712121;83;21683;-79
2022/10/30 01:06:02;;;;;;;11.50;8.28;;;;;;;20.05;44.38;101299.00;1703382;83;21008;-79
2022/10/30 01:08:28;;;;;;;11.18;8.55;;;;;;;20.05;44.41;101293.48;1699427;83;21641;-79
2022/10/30 01:11:01;;;;;;;12.13;8.33;;;;;;;20.04;44.41;101293.21;1706793;83;21151;-79
2022/10/30 01:13:28;;;;;;;11.88;7.95;;;;;;;20.05;44.42;101294.86;1703423;83;21073;-79
2022/10/30 01:16:11;;;;;;;12.13;8.43;;;;;;;20.05;44.43;101298.17;1703922;83;21407;-79
2022/10/30 01:18:58;;;;;;;11.68;7.58;;;;;;;20.04;44.43;101297.35;1719926;83;21209;-79
2022/10/30 01:21:53;;;;;;;11.20;8.00;;;;;;;20.05;44.44;101292.09;1722933;83;21154;-79
2022/10/30 01:24:40;;;;;;;11.88;8.20;;;;;;;20.04;44.44;101293.77;1720826;83;21487;-78
2022/10/30 01:27:27;;;;;;;11.33;8.10;;;;;;;20.04;44.43;101288.24;1697255;82;21179;-79
2022/10/30 01:30:35;;;;;;;11.10;7.85;;;;;;;20.02;44.46;101276.14;1710749;83;21434;-79
2022/10/30 01:33:07;;;;;;;9.10;7.12;;;;;;;20.03;44.44;101273.61;1700496;83;21063;-79
2022/10/30 01:35:44;;;;;;;12.07;8.20;;;;;;;20.02;44.45;101262.88;1694198;83;21005;-79
2022/10/30 01:38:30;;;;;;;9.98;7.42;;;;;;;20.02;44.46;101267.02;1708612;83;21087;-79
2022/10/30 01:40:57;;;;;;;9.93;7.50;;;;;;;20.02;44.47;101255.98;1696671;83;21076;-79
2022/10/30 01:43:23;;;;;;;11.57;7.62;;;;;;;20.00;44.47;101259.59;1708056;83;21073;-78
2022/10/30 01:46:13;;;;;;;10.45;7.92;;;;;;;20.02;44.48;101260.13;1697509;81;21554;-79
2022/10/30 01:49:19;;;;;;;11.20;7.40;;;;;;;20.00;44.49;101256.27;1676511;83;21060;-79
2022/10/30 01:52:11;;;;;;;10.78;7.78;;;;;;;20.01;44.48;101251.57;1700598;83;21531;-79
2022/10/30 01:55:13;;;;;;;10.70;7.58;;;;;;;19.98;44.47;101245.28;1714517;83;21626;-78
2022/10/30 01:58:03;;;;;;;11.05;7.62;;;;;;;20.00;44.48;101247.16;1687931;83;21051;-79
2022/10/30 02:00:29;;;;;;;11.53;7.20;;;;;;;19.99;44.49;101246.34;1715938;83;21079;-79
2022/10/30 02:02:56;;;;;;;9.10;6.97;;;;;;;19.98;44.52;101237.81;1664625;84;38191;-79
2022/10/30 02:05:40;;;;;;;9.55;7.50;;;;;;;19.99;44.52;101246.89;1703990;83;21796;-79
2022/10/30 02:08:06;;;;;;;10.15;7.42;;;;;;;19.98;44.53;101243.34;1702818;83;21127;-78
2022/10/30 02:10:34;;;;;;;11.03;7.40;;;;;;;19.98;44.52;101229.53;1693330;83;21065;-79
2022/10/30 02:13:01;;;;;;;10.65;7.72;;;;;;;19.98;44.53;101228.15;1702193;83;21483;-79
2022/10/30 02:15:27;;;;;;;10.53;7.33;;;;;;;19.99;44.55;101227.56;1716785;83;21139;-79
2022/10/30 02:17:54;;;;;;;10.90;7.62;;;;;;;19.99;44.54;101226.18;1706242;83;22003;-79
2022/10/30 02:20:20;;;;;;;10.08;7.30;;;;;;;19.99;44.54;101222.86;1699999;83;21049;-79
2022/10/30 02:22:46;;;;;;;12.18;7.05;;;;;;;20.00;44.54;101225.06;1684394;83;21040;-80
2022/10/30 02:25:13;;;;;;;11.10;7.55;;;;;;;19.99;44.54;101218.72;1705605;83;22178;-79
2022/10/30 02:27:40;;;;;;;12.28;7.80;;;;;;;20.00;44.52;101218.16;1693475;83;21150;-79
2022/10/30 02:30:12;;;;;;;10.30;7.12;;;;;;;20.00;44.53;101212.08;1677482;83;21182;-79
2022/10/30 02:32:39;;;;;;;10.15;7.45;;;;;;;20.00;44.53;101209.87;1705789;83;21630;-79
2022/10/30 02:35:05;;;;;;;11.78;8.03;;;;;;;20.00;44.53;101213.45;1693702;83;21554;-79
2022/10/30 02:37:34;;;;;;;10.78;7.78;;;;;;;20.00;44.54;101213.45;1699403;83;21467;-79
2022/10/30 02:40:02;;;;;;;12.30;7.78;;;;;;;20.00;44.51;101220.36;1693829;83;21056;-79
2022/10/30 02:42:28;;;;;;;8.93;7.05;;;;;;;20.00;44.53;101222.30;1658698;84;21218;-79
2022/10/30 02:44:54;;;;;;;9.28;6.75;;;;;;;20.01;44.52;101228.91;1659595;84;21056;-81
2022/10/30 02:47:21;;;;;;;11.50;7.35;;;;;;;20.00;44.53;101227.27;1643249;86;21096;-79
2022/10/30 02:49:47;;;;;;;11.18;7.37;;;;;;;19.99;44.52;101222.86;1665452;84;21036;-79
2022/10/30 02:52:13;;;;;;;9.68;6.67;;;;;;;20.00;44.53;101224.51;1660628;85;21058;-79
2022/10/30 02:54:39;;;;;;;8.73;6.75;;;;;;;20.00;44.54;101220.36;1641372;85;22712;-79
2022/10/30 02:57:06;;;;;;;10.50;7.20;;;;;;;20.00;44.54;101223.13;1660627;84;20980;-79
2022/10/30 02:59:32;;;;;;;9.85;7.15;;;;;;;19.99;44.54;101220.09;1659642;84;21064;-79
2022/10/30 03:01:58;;;;;;;9.93;7.03;;;;;;;19.99;44.53;101218.72;1660551;85;21532;-79
2022/10/30 03:04:24;;;;;;;9.88;6.62;;;;;;;19.99;44.53;101217.34;1660574;84;21061;-78
2022/10/30 03:06:51;;;;;;;9.60;6.28;;;;;;;20.00;44.53;101226.45;1660826;83;21646;-79
2022/10/30 03:09:17;;;;;;;9.75;6.92;;;;;;;19.99;44.54;101225.62;1660250;85;21498;-79
2022/10/30 03:11:44;;;;;;;10.45;6.90;;;;;;;19.99;44.53;101220.09;1703354;83;21607;-79
2022/10/30 03:14:10;;;;;;;9.28;6.72;;;;;;;20.00;44.53;101222.30;1694837;83;21044;-78
2022/10/30 03:16:37;;;;;;;10.15;6.92;;;;;;;19.99;44.56;101222.86;1710146;82;21108;-79
2022/10/30 03:19:04;;;;;;;10.25;6.92;;;;;;;19.98;44.53;101228.70;1720402;83;21159;-79
2022/10/30 03:21:31;;;;;;;9.55;6.90;;;;;;;19.98;44.55;101225.95;1719511;82;21052;-78
2022/10/30 03:23:57;;;;;;;8.08;6.50;;;;;;;19.98;44.55;101220.42;1719533;83;21125;-79
2022/10/30 03:26:29;;;;;;;9.58;7.28;;;;;;;19.98;44.56;101228.70;1719177;83;21033;-79
2022/10/30 03:28:56;;;;;;;10.58;7.12;;;;;;;19.98;44.56;101224.01;1720181;82;21033;-79
2022/10/30 03:31:22;;;;;;;9.63;6.67;;;;;;;19.98;44.54;101225.39;1719208;83;21190;-78
2022/10/30 03:33:48;;;;;;;9.60;6.58;;;;;;;19.97;44.56;101219.59;1719393;83;21052;-79
2022/10/30 03:36:15;;;;;;;9.93;7.37;;;;;;;19.98;44.54;101218.48;1719467;83;21509;-80
2022/10/30 03:38:42;;;;;;;9.43;6.40;;;;;;;19.98;44.53;101209.38;1720071;83;21032;-79
2022/10/30 03:41:08;;;;;;;9.80;6.70;;;;;;;19.97;44.53;101217.39;1699105;82;21044;-79
2022/10/30 03:43:34;;;;;;;9.08;6.58;;;;;;;19.97;44.54;101214.08;1718773;82;21261;-79
2022/10/30 03:46:01;;;;;;;9.43;6.45;;;;;;;19.98;44.51;101220.42;1719970;82;21036;-79
2022/10/30 03:48:27;;;;;;;9.90;6.83;;;;;;;19.98;44.52;101212.96;1719887;83;21041;-79
2022/10/30 03:50:58;;;;;;;10.75;6.78;;;;;;;19.97;44.50;101214.08;1719574;83;21075;-79
2022/10/30 03:53:25;;;;;;;9.13;6.45;;;;;;;19.98;44.52;101212.96;1719375;81;21116;-79
2022/10/30 03:55:52;;;;;;;8.98;6.80;;;;;;;19.96;44.50;101215.19;1713897;81;21273;-79
2022/10/30 03:58:18;;;;;;;10.35;7.03;;;;;;;19.97;44.51;101211.88;1716436;81;21100;-79
2022/10/30 04:00:44;;;;;;;11.73;7.45;;;;;;;19.97;44.51;101213.25;1719633;81;21040;-79
2022/10/30 04:03:11;;;;;;;10.80;7.25;;;;;;;19.96;44.52;101218.52;1690836;83;21546;-79
2022/10/30 04:05:38;;;;;;;8.68;6.42;;;;;;;19.95;44.52;101216.30;1691585;83;21060;-79
2022/10/30 04:08:07;;;;;;;9.00;6.83;;;;;;;19.95;44.54;101213.55;1721213;81;21177;-78
2022/10/30 04:10:33;;;;;;;10.85;7.10;;;;;;;19.94;44.54;101217.42;1693769;81;21547;-79
2022/10/30 04:13:05;;;;;;;10.78;7.12;;;;;;;19.95;44.55;101216.86;1718341;81;21052;-79
2022/10/30 04:15:31;;;;;;;9.45;6.83;;;;;;;19.94;44.55;101216.04;1719167;81;21547;-79
2022/10/30 04:17:58;;;;;;;11.20;7.37;;;;;;;19.94;44.56;101214.66;1715617;81;21085;-79
2022/10/30 04:20:25;;;;;;;11.43;7.28;;;;;;;19.94;44.56;101216.04;1690180;83;21199;-79
2022/10/30 04:23:03;;;;;;;9.15;6.42;;;;;;;19.94;44.55;101219.39;1689011;84;21566;-79
2022/10/30 04:25:30;;;;;;;8.65;6.35;;;;;;;19.93;44.58;101210.28;1690199;83;21096;-79
2022/10/30 04:27:56;;;;;;;9.78;7.00;;;;;;;19.94;44.56;101215.25;1690549;83;21152;-78
2022/10/30 04:30:24;;;;;;;10.40;7.22;;;;;;;19.93;44.56;101213.61;1693947;81;21155;-79
2022/10/30 04:32:52;;;;;;;8.48;6.60;;;;;;;19.92;44.57;101214.16;1690209;84;21177;-79
2022/10/30 04:35:20;;;;;;;9.73;7.20;;;;;;;19.92;44.56;101221.06;1690493;84;21109;-78
2022/10/30 04:37:58;;;;;;;10.05;6.95;;;;;;;19.92;44.58;101221.06;1664981;84;21125;-80
2022/10/30 04:40:26;;;;;;;10.23;6.97;;;;;;;19.92;44.58;101214.72;1717670;81;21092;-79
2022/10/30 04:42:52;;;;;;;9.15;6.90;;;;;;;19.92;44.56;101211.95;1712928;81;21544;-79
2022/10/30 04:45:19;;;;;;;9.28;6.45;;;;;;;19.91;44.58;101212.52;1698529;82;21642;-79
2022/10/30 04:47:45;;;;;;;9.50;6.80;;;;;;;19.91;44.57;101211.13;1693029;82;21077;-79
2022/10/30 04:50:12;;;;;;;10.13;6.85;;;;;;;19.91;44.57;101213.89;1712930;81;21040;-79
2022/10/30 04:52:38;;;;;;;9.43;6.12;;;;;;;19.91;44.56;101213.89;1717401;81;21060;-78
2022/10/30 04:55:05;;;;;;;9.80;6.75;;;;;;;19.92;44.56;101216.92;1714812;81;21721;-79
2022/10/30 04:57:31;;;;;;;11.73;7.17;;;;;;;19.92;44.56;101211.95;1721237;81;21890;-79
2022/10/30 04:59:58;;;;;;;10.45;7.28;;;;;;;19.91;44.56;101213.89;1714077;81;21084;-79
2022/10/30 05:02:24;;;;;;;8.95;6.37;;;;;;;19.91;44.56;101218.03;1712841;81;21084;-79
2022/10/30 05:04:50;;;;;;;9.63;6.97;;;;;;;19.91;44.54;101218.03;1693566;83;21526;-79
2022/10/30 05:07:17;;;;;;;9.55;7.00;;;;;;;19.90;44.53;101216.39;1688220;83;21514;-79
2022/10/30 05:09:43;;;;;;;11.97;7.62;;;;;;;19.91;44.54;101224.94;1674449;84;21180;-79
2022/10/30 05:12:09;;;;;;;9.00;6.92;;;;;;;19.91;44.53;101214.45;1698482;83;21001;-79
2022/10/30 05:14:36;;;;;;;9.35;7.28;;;;;;;19.91;44.54;101213.89;1682811;84;21064;-79
2022/10/30 05:17:02;;;;;;;8.80;6.83;;;;;;;19.90;44.52;101212.84;1717771;83;21044;-78
2022/10/30 05:19:28;;;;;;;9.60;7.03;;;;;;;19.91;44.52;101213.89;1707692;83;21555;-79
2022/10/30 05:21:55;;;;;;;8.63;6.42;;;;;;;19.90;44.51;101223.30;1714190;83;21617;-78
2022/10/30 05:24:21;;;;;;;7.33;6.05;;;;;;;19.92;44.51;101232.67;1696401;83;21075;-80
2022/10/30 05:26:47;;;;;;;8.68;6.42;;;;;;;19.90;44.50;101238.48;1672041;83;21104;-78
2022/10/30 05:29:13;;;;;;;10.30;7.15;;;;;;;19.91;44.52;101240.13;1694199;83;21083;-78
2022/10/30 05:31:40;;;;;;;9.73;7.00;;;;;;;19.90;44.52;101241.83;1706323;83;21068;-79
2022/10/30 05:34:06;;;;;;;9.53;6.67;;;;;;;19.90;44.52;101244.59;1687929;83;21162;-78
2022/10/30 05:36:32;;;;;;;10.98;6.87;;;;;;;19.90;44.50;101238.48;1699947;83;21276;-78
2022/10/30 05:38:59;;;;;;;10.38;6.80;;;;;;;19.90;44.52;101245.38;1690297;83;21096;-78
2022/10/30 05:41:25;;;;;;;10.20;6.65;;;;;;;19.91;44.51;101249.80;1709951;82;21597;-79
2022/10/30 05:43:51;;;;;;;9.68;6.58;;;;;;;19.89;44.49;101250.67;1698725;81;21182;-78
2022/10/30 05:46:18;;;;;;;10.70;7.12;;;;;;;19.90;44.50;101254.26;1682036;83;22010;-78
2022/10/30 05:48:44;;;;;;;10.60;6.75;;;;;;;19.89;44.52;101257.58;1714895;83;21068;-78
2022/10/30 05:51:10;;;;;;;10.85;7.17;;;;;;;19.89;44.52;101259.52;1699940;82;21036;-78
2022/10/30 05:53:37;;;;;;;9.68;7.12;;;;;;;19.89;44.51;101269.18;1697182;83;21060;-78
2022/10/30 05:56:09;;;;;;;10.85;7.53;;;;;;;19.89;44.51;101267.24;1697238;83;21570;-79
2022/10/30 05:58:36;;;;;;;11.97;7.25;;;;;;;19.89;44.49;101274.14;1670426;83;21707;-78
2022/10/30 06:01:08;;;;;;;10.65;7.37;;;;;;;19.88;44.49;101265.59;1700917;83;21036;-78
2022/10/30 06:03:34;;;;;;;12.07;7.20;;;;;;;19.88;44.48;101261.45;1704005;82;21071;-78
2022/10/30 06:06:00;;;;;;;8.88;6.83;;;;;;;19.88;44.49;101271.67;1696784;83;21131;-78
2022/10/30 06:08:26;;;;;;;8.50;6.42;;;;;;;19.87;44.49;101272.78;1698814;83;21023;-78
2022/10/30 06:10:54;;;;;;;11.85;6.90;;;;;;;19.88;44.49;101274.44;1710138;82;20997;-78
2022/10/30 06:13:20;;;;;;;10.68;6.92;;;;;;;19.88;44.48;101274.44;1715618;83;21384;-78
2022/10/30 06:15:47;;;;;;;9.28;6.47;;;;;;;19.88;44.49;101266.16;1699077;82;21076;-79
2022/10/30 06:18:14;;;;;;;9.98;7.15;;;;;;;19.88;44.48;101268.91;1692644;83;21722;-79
2022/10/30 06:20:40;;;;;;;11.55;7.10;;;;;;;19.88;44.51;101261.45;1693519;81;21572;-78
2022/10/30 06:23:07;;;;;;;12.50;7.25;;;;;;;19.88;44.48;101261.45;1693131;81;22250;-78
2022/10/30 06:25:40;;;;;;;10.53;7.60;;;;;;;19.88;44.49;101268.36;1689199;84;21175;-78
2022/10/30 06:28:09;;;;;;;10.90;7.78;;;;;;;19.88;44.49;101266.16;1689001;84;21001;-78
2022/10/30 06:30:35;;;;;;;11.22;7.22;;;;;;;19.88;44.48;101269.73;1690008;84;21052;-78
2022/10/30 06:33:03;;;;;;;8.83;6.87;;;;;;;19.88;44.47;101267.53;1690103;84;21096;-78
2022/10/30 06:35:30;;;;;;;9.80;6.55;;;;;;;19.87;44.49;101262.56;1690067;83;21710;-78
2022/10/30 06:37:58;;;;;;;9.60;7.33;;;;;;;19.88;44.49;101271.67;1690434;83;21076;-78
2022/10/30 06:40:24;;;;;;;10.38;6.90;;;;;;;19.88;44.49;101264.22;1690046;84;21065;-78
2022/10/30 06:42:52;;;;;;;9.08;6.85;;;;;;;19.87;44.49;101266.70;1709782;81;21037;-78
2022/10/30 06:45:19;;;;;;;10.50;7.50;;;;;;;19.88;44.49;101271.67;1689870;83;21516;-78
2022/10/30 06:47:46;;;;;;;9.90;7.42;;;;;;;19.88;44.50;101273.05;1689495;83;21168;-78
2022/10/30 06:50:16;;;;;;;9.33;7.15;;;;;;;19.88;44.49;101275.81;1691101;84;21504;-78
2022/10/30 06:52:42;;;;;;;10.53;7.15;;;;;;;19.88;44.50;101273.05;1689777;84;20990;-78
2022/10/30 06:55:09;;;;;;;11.00;7.47;;;;;;;19.88;44.47;101278.58;1706508;83;21064;-79
2022/10/30 06:57:35;;;;;;;9.95;6.83;;;;;;;19.88;44.48;101280.78;1709817;83;21546;-78
2022/10/30 07:00:03;;;;;;;9.70;7.10;;;;;;;19.88;44.49;101276.64;1705818;83;21206;-79
2022/10/30 07:02:30;;;;;;;8.75;7.05;;;;;;;19.89;44.48;101271.94;1724691;83;21008;-78
2022/10/30 07:04:56;;;;;;;9.25;6.90;;;;;;;19.88;44.48;101275.26;1714232;83;21040;-78
2022/10/30 07:07:22;;;;;;;10.88;7.15;;;;;;;19.88;44.49;101265.59;1716887;83;20981;-78
2022/10/30 07:09:49;;;;;;;9.93;6.92;;;;;;;19.90;44.50;101272.20;1709239;83;21523;-79
2022/10/30 07:12:15;;;;;;;9.80;6.65;;;;;;;19.90;44.50;101275.77;1687069;83;21685;-78
2022/10/30 07:14:41;;;;;;;9.73;7.40;;;;;;;19.90;44.48;101267.48;1724256;83;21076;-78
2022/10/30 07:17:08;;;;;;;10.78;6.78;;;;;;;19.91;44.50;101255.88;1712694;83;21452;-78
2022/10/30 07:19:34;;;;;;;10.23;6.95;;;;;;;19.90;44.48;101258.41;1717102;81;21068;-78
2022/10/30 07:22:01;;;;;;;9.58;7.00;;;;;;;19.90;44.48;101253.67;1724619;83;21589;-78
2022/10/30 07:24:27;;;;;;;13.32;7.50;;;;;;;19.91;44.49;101248.97;1710877;82;21514;-78
2022/10/30 07:26:55;;;;;;;11.97;6.87;;;;;;;19.90;44.48;101250.91;1714363;82;21071;-78
2022/10/30 07:29:27;;;;;;;10.65;7.75;;;;;;;19.91;44.47;101245.65;1716876;82;21071;-78
2022/10/30 07:31:53;;;;;;;10.40;6.80;;;;;;;19.91;44.47;101251.17;1692947;83;21693;-78
2022/10/30 07:34:19;;;;;;;9.20;7.25;;;;;;;19.92;44.49;101247.30;1683834;83;21089;-78
2022/10/30 07:36:46;;;;;;;10.80;6.95;;;;;;;19.93;44.48;101246.74;1701929;83;21894;-78
2022/10/30 07:39:12;;;;;;;11.18;6.97;;;;;;;19.93;44.46;101239.84;1702970;83;21060;-78
2022/10/30 07:41:38;;;;;;;9.93;7.50;;;;;;;19.93;44.45;101237.08;1683082;83;21042;-78
2022/10/30 07:44:05;;;;;;;10.20;7.72;;;;;;;19.94;44.49;101239.52;1691037;83;21097;-78
2022/10/30 07:46:31;;;;;;;11.15;7.28;;;;;;;19.94;44.48;101234.58;1693506;83;21005;-80
2022/10/30 07:48:58;;;;;;;11.40;7.42;;;;;;;19.94;44.46;101222.95;1687272;83;21092;-78
2022/10/30 07:51:24;;;;;;;12.05;7.50;;;;;;;19.94;44.46;101227.09;1687720;83;21091;-79
2022/10/30 07:53:50;;;;;;;11.28;7.83;;;;;;;19.95;44.47;101219.63;1688227;83;21059;-79
2022/10/30 07:56:16;;;;;;;11.15;7.37;;;;;;;19.96;44.46;101217.13;1692460;83;21121;-78
2022/10/30 07:58:43;;;;;;;10.20;7.67;;;;;;;19.96;44.43;101217.95;1683430;83;21081;-78
2022/10/30 08:01:09;;;;;;;11.75;6.95;;;;;;;19.97;44.42;101211.88;1681601;83;21306;-78
2022/10/30 08:03:35;;;;;;;10.25;7.22;;;;;;;19.97;44.41;101210.49;1700792;81;21719;-78
2022/10/30 08:06:01;;;;;;;9.50;7.15;;;;;;;19.97;44.43;101212.70;1707369;81;21497;-78
2022/10/30 08:08:28;;;;;;;11.08;7.97;;;;;;;19.97;44.41;101207.17;1714588;81;21581;-79
2022/10/30 08:10:54;;;;;;;12.78;8.05;;;;;;;19.98;44.42;101199.71;1703838;83;21059;-78
2022/10/30 08:13:20;;;;;;;10.53;7.42;;;;;;;19.99;44.40;101194.42;1703272;83;21146;-79
2022/10/30 08:15:48;;;;;;;9.88;7.12;;;;;;;19.99;44.40;101197.18;1675296;83;21186;-78
2022/10/30 08:18:14;;;;;;;10.43;7.20;;;;;;;20.00;44.39;101198.83;1676501;83;21155;-79
2022/10/30 08:20:49;;;;;;;10.00;6.90;;;;;;;20.00;44.39;101194.13;1675219;83;21032;-78
2022/10/30 08:23:18;;;;;;;8.83;7.33;;;;;;;20.00;44.39;101188.61;1685047;83;21076;-78
2022/10/30 08:25:44;;;;;;;13.58;7.87;;;;;;;20.02;44.38;101186.93;1674646;83;21627;-78
2022/10/30 08:28:10;;;;;;;10.85;7.67;;;;;;;20.00;44.38;101184.46;1681506;83;21072;-78
2022/10/30 08:30:37;;;;;;;10.78;7.47;;;;;;;20.01;44.38;101182.52;1695635;83;21089;-78
2022/10/30 08:33:07;;;;;;;9.45;7.08;;;;;;;20.00;44.38;101177.55;1702795;81;21061;-79
2022/10/30 08:35:33;;;;;;;11.48;7.85;;;;;;;20.02;44.38;101178.09;1695340;82;21060;-78
2022/10/30 08:38:01;;;;;;;10.28;7.28;;;;;;;20.02;44.39;101176.70;1703777;83;21165;-78
2022/10/30 08:40:27;;;;;;;10.03;6.58;;;;;;;20.02;44.38;101178.09;1699647;83;21108;-78
2022/10/30 08:42:55;;;;;;;10.43;7.28;;;;;;;20.03;44.38;101177.50;1696147;81;20996;-78
2022/10/30 08:45:23;;;;;;;8.95;7.30;;;;;;;20.03;44.38;101182.46;1703664;81;21618;-78
2022/10/30 08:48:00;;;;;;;12.68;7.80;;;;;;;20.03;44.36;101181.08;1694570;81;21033;-78
2022/10/30 08:50:26;;;;;;;10.53;7.30;;;;;;;20.04;44.38;101181.34;1701985;81;21560;-78
2022/10/30 08:52:52;;;;;;;12.10;7.75;;;;;;;20.04;44.37;101188.25;1696715;81;21053;-78
2022/10/30 08:55:19;;;;;;;11.35;7.12;;;;;;;20.05;44.37;101194.59;1702601;81;21061;-78
2022/10/30 08:57:45;;;;;;;9.23;6.90;;;;;;;20.04;44.39;101195.71;1699298;81;21071;-78
2022/10/30 09:00:12;;;;;;;10.45;7.40;;;;;;;20.05;44.37;101184.93;1704985;82;21137;-78
2022/10/30 09:02:38;;;;;;;11.20;6.78;;;;;;;20.04;44.38;101186.88;1701830;81;21069;-78
2022/10/30 09:05:06;;;;;;;10.90;7.78;;;;;;;20.05;44.36;101184.93;1695196;83;21587;-77
2022/10/30 09:07:33;;;;;;;11.70;7.15;;;;;;;20.05;44.39;101191.28;1707014;83;21057;-78
2022/10/30 09:09:59;;;;;;;10.08;7.55;;;;;;;20.06;44.38;101186.58;1678553;83;21631;-78
2022/10/30 09:12:25;;;;;;;12.05;6.83;;;;;;;20.06;44.37;101185.20;1695890;83;21183;-79
2022/10/30 09:14:52;;;;;;;9.75;6.97;;;;;;;20.06;44.37;101179.67;1690415;83;21837;-78
2022/10/30 09:17:24;;;;;;;11.00;7.80;;;;;;;20.04;44.38;101175.82;1711216;83;21150;-79
2022/10/30 09:19:50;;;;;;;8.43;6.67;;;;;;;20.05;44.37;101181.61;1690171;83;21725;-78
2022/10/30 09:22:17;;;;;;;10.50;6.90;;;;;;;20.05;44.37;101183.55;1668663;83;21532;-78
2022/10/30 09:24:43;;;;;;;9.68;7.42;;;;;;;20.05;44.37;101182.99;1689679;83;21140;-78
2022/10/30 09:27:09;;;;;;;11.40;7.40;;;;;;;20.05;44.37;101183.55;1678448;83;21954;-78
2022/10/30 09:29:36;;;;;;;8.33;6.67;;;;;;;20.05;44.37;101185.75;1696982;83;20998;-78
2022/10/30 09:32:03;;;;;;;9.40;6.58;;;;;;;20.05;44.37;101198.19;1711427;82;21524;-78
2022/10/30 09:34:30;;;;;;;11.60;6.90;;;;;;;20.05;44.38;101205.09;1706172;82;21048;-78
2022/10/30 09:36:56;;;;;;;9.50;6.67;;;;;;;20.05;44.38;101198.19;1712670;82;21084;-78
2022/10/30 09:39:24;;;;;;;8.85;6.25;;;;;;;20.05;44.41;101195.42;1696162;82;21156;-78
2022/10/30 09:42:25;;;;;;;9.08;6.87;;;;;;;20.05;44.39;101196.80;1695345;82;21470;-78
2022/10/30 09:45:24;;;;;;;8.43;7.00;;;;;;;20.04;44.41;101186.88;1695809;82;21550;-78
2022/10/30 09:48:19;;;;;;;9.50;6.92;;;;;;;20.05;44.38;101180.78;1699060;82;21063;-78
2022/10/30 09:51:09;;;;;;;8.13;6.12;;;;;;;20.04;44.38;101180.52;1690632;82;21223;-78
2022/10/30 09:53:41;;;;;;;10.38;6.83;;;;;;;20.03;44.38;101176.94;1679269;83;21534;-78
2022/10/30 09:56:35;;;;;;;9.78;6.97;;;;;;;20.03;44.38;101181.64;1677307;83;21592;-78
2022/10/30 09:59:35;;;;;;;8.85;6.40;;;;;;;20.02;44.40;101175.33;1719370;82;21506;-79
2022/10/30 10:02:05;;;;;;;11.08;7.35;;;;;;;20.02;44.36;101168.98;1710052;81;21087;-78
2022/10/30 10:04:46;;;;;;;9.08;6.53;;;;;;;20.02;44.38;101161.52;1708550;81;21056;-78
2022/10/30 10:07:36;;;;;;;9.90;7.40;;;;;;;20.01;44.39;101160.43;1717054;81;21176;-78
2022/10/30 10:10:12;;;;;;;10.78;6.67;;;;;;;20.00;44.38;101160.16;1714218;81;21096;-79
2022/10/30 10:12:43;;;;;;;10.13;6.78;;;;;;;20.00;44.39;101160.98;1713278;81;21029;-79
2022/10/30 10:15:48;;;;;;;8.48;6.65;;;;;;;20.00;44.39;101159.60;1717838;81;21095;-79
2022/10/30 10:18:19;;;;;;;9.08;6.78;;;;;;;20.00;44.42;101150.50;1716921;81;21030;-79
2022/10/30 10:20:48;;;;;;;9.13;7.05;;;;;;;20.00;44.41;101144.41;1714829;82;21722;-79
2022/10/30 10:23:32;;;;;;;10.23;7.00;;;;;;;20.01;44.40;101142.48;1689363;83;21048;-79
2022/10/30 10:26:01;;;;;;;10.75;6.58;;;;;;;20.01;44.44;101142.48;1689820;83;21683;-79
2022/10/30 10:28:45;;;;;;;9.18;6.75;;;;;;;20.00;44.42;101140.27;1691551;83;21038;-79
2022/10/30 10:31:49;;;;;;;10.20;6.92;;;;;;;20.00;44.42;101129.22;1682698;83;21144;-79
2022/10/30 10:34:35;;;;;;;10.25;6.67;;;;;;;20.03;44.43;101124.45;1653110;85;21151;-79
2022/10/30 10:37:35;;;;;;;11.38;6.80;;;;;;;20.02;44.40;101120.09;1690334;83;21112;-79
2022/10/30 10:40:20;;;;;;;8.83;5.85;;;;;;;20.02;44.41;101110.98;1692317;83;21580;-79
2022/10/30 10:43:01;;;;;;;9.55;7.22;;;;;;;20.02;44.40;101113.18;1687798;83;21037;-79
2022/10/30 10:45:51;;;;;;;8.25;6.05;;;;;;;20.02;44.40;101109.04;1689524;83;21088;-79
2022/10/30 10:48:41;;;;;;;9.93;6.67;;;;;;;20.02;44.41;101110.42;1689025;82;21613;-79
2022/10/30 10:51:13;;;;;;;9.57;7.03;;;;;;;20.01;44.40;101101.05;1712165;81;21642;-78
2022/10/30 10:53:47;;;;;;;8.60;6.35;;;;;;;20.02;44.40;101099.93;1711839;81;21343;-79
2022/10/30 10:56:13;;;;;;;9.85;6.60;;;;;;;20.02;44.43;101097.98;1708329;81;21069;-78
2022/10/30 10:58:51;;;;;;;9.80;6.78;;;;;;;20.02;44.43;101093.02;1717273;81;21104;-78
2022/10/30 11:01:21;;;;;;;8.60;6.50;;;;;;;20.02;44.43;101090.27;1709273;83;21221;-77
2022/10/30 11:03:58;;;;;;;9.28;6.75;;;;;;;20.02;44.45;101090.27;1709788;81;21024;-78
2022/10/30 11:06:27;;;;;;;8.48;6.28;;;;;;;20.03;44.45;101096.02;1707412;81;21041;-78
2022/10/30 11:09:00;;;;;;;7.97;6.55;;;;;;;20.03;44.45;101091.31;1715511;81;21012;-78
2022/10/30 11:11:26;;;;;;;10.03;6.75;;;;;;;20.03;44.44;101088.55;1709288;81;21081;-78
2022/10/30 11:13:52;;;;;;;8.53;6.70;;;;;;;20.03;44.45;101085.80;1712356;81;21202;-77
2022/10/30 11:16:36;;;;;;;9.90;6.92;;;;;;;20.04;44.45;101085.23;1675389;81;21036;-78
2022/10/30 11:19:04;;;;;;;8.48;6.15;;;;;;;20.03;44.45;101091.31;1713904;81;21126;-78
2022/10/30 11:21:34;;;;;;;10.43;6.58;;;;;;;20.04;44.43;101088.82;1713593;81;21579;-78
2022/10/30 11:24:00;;;;;;;10.18;6.90;;;;;;;20.05;44.44;101091.84;1706182;81;21136;-78
2022/10/30 11:26:29;;;;;;;9.55;6.55;;;;;;;20.05;44.44;101086.88;1714248;83;21838;-77
2022/10/30 11:29:14;;;;;;;10.15;6.22;;;;;;;20.06;44.44;101086.58;1720031;81;21593;-78
2022/10/30 11:31:43;;;;;;;9.55;6.65;;;;;;;20.06;44.43;101087.14;1712727;81;21061;-78
2022/10/30 11:34:21;;;;;;;10.23;6.83;;;;;;;20.07;44.42;101087.41;1716711;81;21111;-78
2022/10/30 11:36:50;;;;;;;8.18;6.08;;;;;;;20.06;44.41;101085.20;1719715;81;21494;-78
2022/10/30 11:39:23;;;;;;;8.50;5.95;;;;;;;20.06;44.41;101083.82;1716516;81;21508;-78